Le Ponant — FGZZ — position and weather

sailwx.info

Track history (hours):
 
Tides and Currents Weather Stations Pressure Air Temp Water Temp Dewpoint Dewpoint Depression Visibility Wind Speed Wind Dir Waves Ship Positions

Le Ponant

Operator: Compangy des Iles du Ponant

Last reported at 2015-Apr-14 20:26 UTC. Time now 2015-Apr-19 10:53 UTC.
Position N 14°51' W 061°15'.

Length 84 m; draft 4.2 m.

Type: Passenger vessel. MMSI: 227186000.

Date/timePositionNaut miles runAvg speedWind from/ knotsBaromVisibWave heightAir tempDewpointWater temp
2015-Apr-14 20:26N 14°51' W 061°15'1011.6
2015-Apr-14 19:33N 14°41' W 061°12'9 9.2
2015-Apr-14 18:33N 14°35' W 061°04'1 1.0
2015-Apr-14 17:33N 14°36' W 061°04'0 0.0
2015-Apr-14 16:33N 14°36' W 061°04'0 0.0
2015-Apr-14 15:33N 14°36' W 061°04'0 0.0
2015-Apr-14 14:34N 14°36' W 061°04'0 0.0
2015-Apr-14 13:33N 14°36' W 061°04'0 0.0
2015-Apr-14 12:33N 14°36' W 061°04'1 0.9
2015-Apr-14 11:34N 14°35' W 061°04'5 5.4
2015-Apr-14 10:34N 14°33' W 061°09'9 9.4
2015-Apr-14 09:33N 14°24' W 061°06'1711.4
2015-Apr-14 08:04N 14°08' W 060°58'4 0.3
2015-Apr-13 18:33N 14°04' W 060°60'14 2.0
2015-Apr-13 11:22N 13°50' W 061°04'  
2015-Apr-05 01:22N 14°07' W 061°02'911.0
2015-Apr-05 00:33N 14°16' W 061°05'1111.5
2015-Apr-04 23:33N 14°27' W 061°06'8 8.4
2015-Apr-04 22:33N 14°35' W 061°04'1 1.1
2015-Apr-04 21:32N 14°36' W 061°04'0 0.0
2015-Apr-04 20:32N 14°36' W 061°04'  
Track history (hours):
 
Tides and Currents Weather Stations Pressure Air Temp Water Temp Dewpoint Dewpoint Depression Visibility Wind Speed Wind Dir Waves Ship Positions

Le Ponant

Operator: Compangy des Iles du Ponant

Last reported at 2015-Apr-14 20:26 UTC. Time now 2015-Apr-19 10:53 UTC.
Position N 14°51' W 061°15'.

Length 84 m; draft 4.2 m.

Type: Passenger vessel. MMSI: 227186000.

Date/timePositionNaut miles runAvg speedWind from/ knotsBaromVisibWave heightAir tempDewpointWater temp
2015-Apr-14 20:26N 14°51' W 061°15'1011.6
2015-Apr-14 19:33N 14°41' W 061°12'9 9.2
2015-Apr-14 18:33N 14°35' W 061°04'1 1.0
2015-Apr-14 17:33N 14°36' W 061°04'0 0.0
2015-Apr-14 16:33N 14°36' W 061°04'0 0.0
2015-Apr-14 15:33N 14°36' W 061°04'0 0.0
2015-Apr-14 14:34N 14°36' W 061°04'0 0.0
2015-Apr-14 13:33N 14°36' W 061°04'0 0.0
2015-Apr-14 12:33N 14°36' W 061°04'1 0.9
2015-Apr-14 11:34N 14°35' W 061°04'5 5.4
2015-Apr-14 10:34N 14°33' W 061°09'9 9.4
2015-Apr-14 09:33N 14°24' W 061°06'1711.4
2015-Apr-14 08:04N 14°08' W 060°58'4 0.3
2015-Apr-13 18:33N 14°04' W 060°60'14 2.0
2015-Apr-13 11:22N 13°50' W 061°04'  
2015-Apr-05 01:22N 14°07' W 061°02'911.0
2015-Apr-05 00:33N 14°16' W 061°05'1111.5
2015-Apr-04 23:33N 14°27' W 061°06'8 8.4
2015-Apr-04 22:33N 14°35' W 061°04'1 1.1
2015-Apr-04 21:32N 14°36' W 061°04'0 0.0
2015-Apr-04 20:32N 14°36' W 061°04'  

Dump ship's entire track history